sensor_id;sensor_type;location;lat;lon;timestamp;P1;durP1;ratioP1;P2;durP2;ratioP2
60018;SDS011;45870;42.528;26.740;2023-04-03T00:02:14;4.57;;;2.75;;
60018;SDS011;45870;42.528;26.740;2023-04-03T00:04:40;6.32;;;3.38;;
60018;SDS011;45870;42.528;26.740;2023-04-03T00:07:06;4.72;;;3.17;;
60018;SDS011;45870;42.528;26.740;2023-04-03T00:09:31;5.75;;;3.70;;
60018;SDS011;45870;42.528;26.740;2023-04-03T00:11:57;5.70;;;3.92;;
60018;SDS011;45870;42.528;26.740;2023-04-03T00:14:22;6.57;;;4.03;;
60018;SDS011;45870;42.528;26.740;2023-04-03T00:16:48;8.70;;;5.03;;
60018;SDS011;45870;42.528;26.740;2023-04-03T00:19:14;8.30;;;5.20;;
60018;SDS011;45870;42.528;26.740;2023-04-03T00:21:40;8.23;;;5.00;;
60018;SDS011;45870;42.528;26.740;2023-04-03T00:24:06;8.77;;;5.40;;
60018;SDS011;45870;42.528;26.740;2023-04-03T00:26:32;8.55;;;5.00;;
60018;SDS011;45870;42.528;26.740;2023-04-03T00:28:57;9.88;;;5.18;;
60018;SDS011;45870;42.528;26.740;2023-04-03T00:31:23;8.70;;;5.03;;
60018;SDS011;45870;42.528;26.740;2023-04-03T00:33:49;7.85;;;4.72;;
60018;SDS011;45870;42.528;26.740;2023-04-03T00:36:15;5.68;;;4.10;;
60018;SDS011;45870;42.528;26.740;2023-04-03T00:38:41;5.40;;;3.88;;
60018;SDS011;45870;42.528;26.740;2023-04-03T00:41:07;5.72;;;3.92;;
60018;SDS011;45870;42.528;26.740;2023-04-03T00:43:33;6.38;;;3.92;;
60018;SDS011;45870;42.528;26.740;2023-04-03T00:45:59;7.45;;;4.80;;
60018;SDS011;45870;42.528;26.740;2023-04-03T00:48:35;7.20;;;4.28;;
60018;SDS011;45870;42.528;26.740;2023-04-03T00:51:06;8.07;;;4.40;;
60018;SDS011;45870;42.528;26.740;2023-04-03T00:53:36;10.48;;;3.50;;
60018;SDS011;45870;42.528;26.740;2023-04-03T00:56:06;4.88;;;3.25;;
60018;SDS011;45870;42.528;26.740;2023-04-03T00:58:42;5.18;;;3.30;;
60018;SDS011;45870;42.528;26.740;2023-04-03T01:01:14;4.13;;;3.30;;
60018;SDS011;45870;42.528;26.740;2023-04-03T01:03:45;5.03;;;3.35;;
60018;SDS011;45870;42.528;26.740;2023-04-03T01:06:10;7.05;;;3.50;;
60018;SDS011;45870;42.528;26.740;2023-04-03T01:08:37;5.43;;;3.08;;
60018;SDS011;45870;42.528;26.740;2023-04-03T01:11:04;4.13;;;3.03;;
60018;SDS011;45870;42.528;26.740;2023-04-03T01:13:31;5.18;;;3.08;;
60018;SDS011;45870;42.528;26.740;2023-04-03T01:16:02;5.10;;;2.53;;
60018;SDS011;45870;42.528;26.740;2023-04-03T01:18:29;4.82;;;2.42;;
60018;SDS011;45870;42.528;26.740;2023-04-03T01:26:43;5.97;;;3.20;;
60018;SDS011;45870;42.528;26.740;2023-04-03T01:29:10;4.88;;;3.45;;
60018;SDS011;45870;42.528;26.740;2023-04-03T01:31:49;5.45;;;3.80;;
60018;SDS011;45870;42.528;26.740;2023-04-03T01:34:20;5.43;;;3.20;;
60018;SDS011;45870;42.528;26.740;2023-04-03T01:36:46;5.60;;;3.20;;
60018;SDS011;45870;42.528;26.740;2023-04-03T01:39:12;5.25;;;3.25;;
60018;SDS011;45870;42.528;26.740;2023-04-03T01:41:38;3.75;;;2.60;;
60018;SDS011;45870;42.528;26.740;2023-04-03T01:44:04;3.33;;;2.50;;
60018;SDS011;45870;42.528;26.740;2023-04-03T01:46:30;5.13;;;3.20;;
60018;SDS011;45870;42.528;26.740;2023-04-03T01:48:56;5.18;;;2.75;;
60018;SDS011;45870;42.528;26.740;2023-04-03T01:51:22;5.13;;;3.55;;
60018;SDS011;45870;42.528;26.740;2023-04-03T01:53:47;4.97;;;3.38;;
60018;SDS011;45870;42.528;26.740;2023-04-03T01:56:16;4.95;;;3.05;;
60018;SDS011;45870;42.528;26.740;2023-04-03T01:58:42;5.68;;;3.38;;
60018;SDS011;45870;42.528;26.740;2023-04-03T02:01:07;5.00;;;2.95;;
60018;SDS011;45870;42.528;26.740;2023-04-03T02:03:33;6.55;;;3.58;;
60018;SDS011;45870;42.528;26.740;2023-04-03T02:06:01;6.00;;;3.85;;
60018;SDS011;45870;42.528;26.740;2023-04-03T02:08:27;5.50;;;4.07;;
60018;SDS011;45870;42.528;26.740;2023-04-03T02:10:52;6.80;;;3.88;;
60018;SDS011;45870;42.528;26.740;2023-04-03T02:13:18;7.35;;;3.53;;
60018;SDS011;45870;42.528;26.740;2023-04-03T02:15:45;6.00;;;3.65;;
60018;SDS011;45870;42.528;26.740;2023-04-03T02:18:11;4.63;;;3.63;;
60018;SDS011;45870;42.528;26.740;2023-04-03T02:20:37;6.13;;;3.63;;
60018;SDS011;45870;42.528;26.740;2023-04-03T02:23:03;4.57;;;3.42;;
60018;SDS011;45870;42.528;26.740;2023-04-03T02:25:30;5.50;;;3.65;;
60018;SDS011;45870;42.528;26.740;2023-04-03T02:27:56;5.18;;;3.33;;
60018;SDS011;45870;42.528;26.740;2023-04-03T02:30:22;8.48;;;4.00;;
60018;SDS011;45870;42.528;26.740;2023-04-03T02:32:47;6.53;;;4.18;;
60018;SDS011;45870;42.528;26.740;2023-04-03T02:35:13;6.38;;;4.40;;
60018;SDS011;45870;42.528;26.740;2023-04-03T02:37:38;8.60;;;5.05;;
60018;SDS011;45870;42.528;26.740;2023-04-03T02:40:04;6.90;;;4.82;;
60018;SDS011;45870;42.528;26.740;2023-04-03T02:42:31;6.85;;;4.15;;
60018;SDS011;45870;42.528;26.740;2023-04-03T02:44:57;9.52;;;4.30;;
60018;SDS011;45870;42.528;26.740;2023-04-03T02:47:23;7.90;;;4.47;;
60018;SDS011;45870;42.528;26.740;2023-04-03T02:49:48;5.97;;;3.78;;
60018;SDS011;45870;42.528;26.740;2023-04-03T02:52:14;6.50;;;4.10;;
60018;SDS011;45870;42.528;26.740;2023-04-03T02:54:40;5.82;;;3.63;;
60018;SDS011;45870;42.528;26.740;2023-04-03T02:57:06;6.05;;;3.65;;
60018;SDS011;45870;42.528;26.740;2023-04-03T02:59:34;5.50;;;4.10;;
60018;SDS011;45870;42.528;26.740;2023-04-03T03:02:01;5.20;;;3.70;;
60018;SDS011;45870;42.528;26.740;2023-04-03T03:04:26;7.25;;;3.58;;
60018;SDS011;45870;42.528;26.740;2023-04-03T03:06:52;5.72;;;4.00;;
60018;SDS011;45870;42.528;26.740;2023-04-03T03:09:18;8.43;;;4.65;;
60018;SDS011;45870;42.528;26.740;2023-04-03T03:11:44;8.73;;;4.65;;
60018;SDS011;45870;42.528;26.740;2023-04-03T03:14:10;7.25;;;4.88;;
60018;SDS011;45870;42.528;26.740;2023-04-03T03:16:36;6.10;;;4.28;;
60018;SDS011;45870;42.528;26.740;2023-04-03T03:19:01;7.53;;;4.63;;
60018;SDS011;45870;42.528;26.740;2023-04-03T03:21:27;11.43;;;5.10;;
60018;SDS011;45870;42.528;26.740;2023-04-03T03:23:53;8.65;;;4.82;;
60018;SDS011;45870;42.528;26.740;2023-04-03T03:26:18;6.50;;;4.57;;
60018;SDS011;45870;42.528;26.740;2023-04-03T03:28:44;6.40;;;4.05;;
60018;SDS011;45870;42.528;26.740;2023-04-03T03:31:11;8.95;;;4.72;;
60018;SDS011;45870;42.528;26.740;2023-04-03T03:33:37;5.28;;;4.07;;
60018;SDS011;45870;42.528;26.740;2023-04-03T03:36:03;6.50;;;4.20;;
60018;SDS011;45870;42.528;26.740;2023-04-03T03:38:29;7.32;;;4.63;;
60018;SDS011;45870;42.528;26.740;2023-04-03T03:40:55;6.43;;;4.32;;
60018;SDS011;45870;42.528;26.740;2023-04-03T03:43:21;11.20;;;4.82;;
60018;SDS011;45870;42.528;26.740;2023-04-03T03:45:53;7.50;;;4.80;;
60018;SDS011;45870;42.528;26.740;2023-04-03T03:48:20;6.78;;;4.82;;
60018;SDS011;45870;42.528;26.740;2023-04-03T03:50:46;7.00;;;4.45;;
60018;SDS011;45870;42.528;26.740;2023-04-03T03:53:12;6.43;;;4.35;;
60018;SDS011;45870;42.528;26.740;2023-04-03T03:55:38;8.73;;;4.50;;
60018;SDS011;45870;42.528;26.740;2023-04-03T03:58:04;7.15;;;4.50;;
60018;SDS011;45870;42.528;26.740;2023-04-03T04:00:31;10.23;;;4.35;;
60018;SDS011;45870;42.528;26.740;2023-04-03T04:02:57;5.97;;;4.07;;
60018;SDS011;45870;42.528;26.740;2023-04-03T04:05:22;7.30;;;3.97;;
60018;SDS011;45870;42.528;26.740;2023-04-03T04:07:48;9.07;;;4.07;;
60018;SDS011;45870;42.528;26.740;2023-04-03T04:10:14;5.50;;;3.45;;
60018;SDS011;45870;42.528;26.740;2023-04-03T04:12:39;6.88;;;3.05;;
60018;SDS011;45870;42.528;26.740;2023-04-03T04:15:05;7.22;;;3.40;;
60018;SDS011;45870;42.528;26.740;2023-04-03T04:17:31;4.30;;;3.05;;
60018;SDS011;45870;42.528;26.740;2023-04-03T04:19:57;6.15;;;3.55;;
60018;SDS011;45870;42.528;26.740;2023-04-03T04:22:23;7.15;;;3.90;;
60018;SDS011;45870;42.528;26.740;2023-04-03T04:24:48;6.40;;;3.58;;
60018;SDS011;45870;42.528;26.740;2023-04-03T04:27:14;7.65;;;3.50;;
60018;SDS011;45870;42.528;26.740;2023-04-03T04:29:41;12.80;;;2.88;;
60018;SDS011;45870;42.528;26.740;2023-04-03T04:32:06;6.45;;;2.88;;
60018;SDS011;45870;42.528;26.740;2023-04-03T04:34:32;5.45;;;3.17;;
60018;SDS011;45870;42.528;26.740;2023-04-03T04:36:58;4.95;;;3.35;;
60018;SDS011;45870;42.528;26.740;2023-04-03T04:39:27;8.10;;;3.53;;
60018;SDS011;45870;42.528;26.740;2023-04-03T04:41:53;8.55;;;3.67;;
60018;SDS011;45870;42.528;26.740;2023-04-03T04:44:18;6.43;;;4.00;;
60018;SDS011;45870;42.528;26.740;2023-04-03T04:46:45;6.95;;;4.25;;
60018;SDS011;45870;42.528;26.740;2023-04-03T04:49:10;7.93;;;4.30;;
60018;SDS011;45870;42.528;26.740;2023-04-03T04:51:37;9.18;;;4.30;;
60018;SDS011;45870;42.528;26.740;2023-04-03T04:54:02;6.75;;;4.03;;
60018;SDS011;45870;42.528;26.740;2023-04-03T04:56:28;6.85;;;4.00;;
60018;SDS011;45870;42.528;26.740;2023-04-03T04:58:54;7.43;;;4.50;;
60018;SDS011;45870;42.528;26.740;2023-04-03T05:01:19;8.68;;;4.63;;
60018;SDS011;45870;42.528;26.740;2023-04-03T05:03:45;9.45;;;4.75;;
60018;SDS011;45870;42.528;26.740;2023-04-03T05:06:14;6.70;;;4.28;;
60018;SDS011;45870;42.528;26.740;2023-04-03T05:08:42;5.75;;;3.80;;
60018;SDS011;45870;42.528;26.740;2023-04-03T05:11:09;7.25;;;4.20;;
60018;SDS011;45870;42.528;26.740;2023-04-03T05:13:34;6.70;;;4.15;;
60018;SDS011;45870;42.528;26.740;2023-04-03T05:16:00;7.20;;;4.15;;
60018;SDS011;45870;42.528;26.740;2023-04-03T05:18:26;6.85;;;4.85;;
60018;SDS011;45870;42.528;26.740;2023-04-03T05:20:51;7.95;;;5.13;;
60018;SDS011;45870;42.528;26.740;2023-04-03T05:23:17;9.25;;;5.18;;
60018;SDS011;45870;42.528;26.740;2023-04-03T05:25:43;7.78;;;4.85;;
60018;SDS011;45870;42.528;26.740;2023-04-03T05:28:10;9.27;;;4.53;;
60018;SDS011;45870;42.528;26.740;2023-04-03T05:30:36;8.05;;;4.28;;
60018;SDS011;45870;42.528;26.740;2023-04-03T05:33:02;4.90;;;3.70;;
60018;SDS011;45870;42.528;26.740;2023-04-03T05:35:28;5.57;;;3.78;;
60018;SDS011;45870;42.528;26.740;2023-04-03T05:37:53;5.50;;;3.50;;
60018;SDS011;45870;42.528;26.740;2023-04-03T05:40:19;6.70;;;3.33;;
60018;SDS011;45870;42.528;26.740;2023-04-03T05:42:46;4.35;;;3.33;;
60018;SDS011;45870;42.528;26.740;2023-04-03T05:45:13;5.47;;;3.45;;
60018;SDS011;45870;42.528;26.740;2023-04-03T05:47:39;7.68;;;4.00;;
60018;SDS011;45870;42.528;26.740;2023-04-03T05:52:55;5.20;;;3.58;;
60018;SDS011;45870;42.528;26.740;2023-04-03T05:55:23;6.57;;;3.78;;
60018;SDS011;45870;42.528;26.740;2023-04-03T05:57:49;6.05;;;2.90;;
60018;SDS011;45870;42.528;26.740;2023-04-03T06:00:15;6.22;;;3.65;;
60018;SDS011;45870;42.528;26.740;2023-04-03T06:02:42;7.68;;;5.72;;
60018;SDS011;45870;42.528;26.740;2023-04-03T06:05:08;9.52;;;7.00;;
60018;SDS011;45870;42.528;26.740;2023-04-03T06:07:36;8.88;;;7.10;;
60018;SDS011;45870;42.528;26.740;2023-04-03T06:10:02;8.13;;;6.68;;
60018;SDS011;45870;42.528;26.740;2023-04-03T06:12:29;8.55;;;6.53;;
60018;SDS011;45870;42.528;26.740;2023-04-03T06:14:54;7.10;;;5.35;;
60018;SDS011;45870;42.528;26.740;2023-04-03T06:17:20;6.45;;;4.60;;
60018;SDS011;45870;42.528;26.740;2023-04-03T06:19:46;7.63;;;4.40;;
60018;SDS011;45870;42.528;26.740;2023-04-03T06:22:12;7.72;;;4.07;;
60018;SDS011;45870;42.528;26.740;2023-04-03T06:24:39;5.75;;;4.05;;
60018;SDS011;45870;42.528;26.740;2023-04-03T06:27:05;6.38;;;4.75;;
60018;SDS011;45870;42.528;26.740;2023-04-03T06:29:31;6.80;;;4.68;;
60018;SDS011;45870;42.528;26.740;2023-04-03T06:31:57;8.77;;;5.05;;
60018;SDS011;45870;42.528;26.740;2023-04-03T06:34:22;6.85;;;4.63;;
60018;SDS011;45870;42.528;26.740;2023-04-03T06:36:48;6.32;;;4.38;;
60018;SDS011;45870;42.528;26.740;2023-04-03T06:39:17;6.75;;;4.85;;
60018;SDS011;45870;42.528;26.740;2023-04-03T06:41:50;7.82;;;4.85;;
60018;SDS011;45870;42.528;26.740;2023-04-03T06:44:16;7.05;;;4.85;;
60018;SDS011;45870;42.528;26.740;2023-04-03T06:46:43;6.65;;;5.10;;
60018;SDS011;45870;42.528;26.740;2023-04-03T06:49:11;7.75;;;4.82;;
60018;SDS011;45870;42.528;26.740;2023-04-03T06:51:37;6.47;;;4.80;;
60018;SDS011;45870;42.528;26.740;2023-04-03T06:54:04;6.40;;;4.72;;
60018;SDS011;45870;42.528;26.740;2023-04-03T06:56:31;6.10;;;4.30;;
60018;SDS011;45870;42.528;26.740;2023-04-03T06:58:57;6.43;;;3.97;;
60018;SDS011;45870;42.528;26.740;2023-04-03T07:01:23;4.88;;;3.92;;
60018;SDS011;45870;42.528;26.740;2023-04-03T07:03:51;5.25;;;3.75;;
60018;SDS011;45870;42.528;26.740;2023-04-03T07:06:18;4.65;;;3.40;;
60018;SDS011;45870;42.528;26.740;2023-04-03T07:08:44;5.85;;;4.22;;
60018;SDS011;45870;42.528;26.740;2023-04-03T07:11:11;5.63;;;3.25;;
60018;SDS011;45870;42.528;26.740;2023-04-03T07:13:38;5.80;;;3.40;;
60018;SDS011;45870;42.528;26.740;2023-04-03T07:16:04;4.25;;;3.22;;
60018;SDS011;45870;42.528;26.740;2023-04-03T07:18:31;4.47;;;3.38;;
60018;SDS011;45870;42.528;26.740;2023-04-03T07:20:58;5.10;;;2.95;;
60018;SDS011;45870;42.528;26.740;2023-04-03T07:23:24;4.28;;;2.72;;
60018;SDS011;45870;42.528;26.740;2023-04-03T07:25:51;3.17;;;2.40;;
60018;SDS011;45870;42.528;26.740;2023-04-03T07:28:18;4.10;;;2.50;;
60018;SDS011;45870;42.528;26.740;2023-04-03T07:30:47;4.30;;;2.75;;
60018;SDS011;45870;42.528;26.740;2023-04-03T07:33:18;4.43;;;2.85;;
60018;SDS011;45870;42.528;26.740;2023-04-03T07:35:46;2.85;;;1.88;;
60018;SDS011;45870;42.528;26.740;2023-04-03T07:38:12;3.92;;;1.90;;
60018;SDS011;45870;42.528;26.740;2023-04-03T07:40:38;3.90;;;2.20;;
60018;SDS011;45870;42.528;26.740;2023-04-03T07:43:05;2.40;;;1.95;;
60018;SDS011;45870;42.528;26.740;2023-04-03T07:45:31;4.85;;;1.95;;
60018;SDS011;45870;42.528;26.740;2023-04-03T07:47:59;2.63;;;1.83;;
60018;SDS011;45870;42.528;26.740;2023-04-03T07:50:25;1.85;;;1.55;;
60018;SDS011;45870;42.528;26.740;2023-04-03T07:52:52;2.80;;;1.80;;
60018;SDS011;45870;42.528;26.740;2023-04-03T07:55:19;2.33;;;1.65;;
60018;SDS011;45870;42.528;26.740;2023-04-03T07:57:45;4.22;;;1.77;;
60018;SDS011;45870;42.528;26.740;2023-04-03T08:00:11;3.42;;;1.70;;
60018;SDS011;45870;42.528;26.740;2023-04-03T08:02:37;2.50;;;1.83;;
60018;SDS011;45870;42.528;26.740;2023-04-03T08:05:03;2.03;;;1.60;;
60018;SDS011;45870;42.528;26.740;2023-04-03T08:07:29;2.55;;;1.77;;
60018;SDS011;45870;42.528;26.740;2023-04-03T08:09:55;2.25;;;1.40;;
60018;SDS011;45870;42.528;26.740;2023-04-03T08:12:21;3.92;;;1.88;;
60018;SDS011;45870;42.528;26.740;2023-04-03T08:14:46;2.92;;;2.00;;
60018;SDS011;45870;42.528;26.740;2023-04-03T08:17:12;2.42;;;1.90;;
60018;SDS011;45870;42.528;26.740;2023-04-03T08:19:38;3.40;;;1.67;;
60018;SDS011;45870;42.528;26.740;2023-04-03T08:22:05;1.40;;;1.30;;
60018;SDS011;45870;42.528;26.740;2023-04-03T08:24:34;2.75;;;1.30;;
60018;SDS011;45870;42.528;26.740;2023-04-03T08:27:00;1.48;;;0.80;;
60018;SDS011;45870;42.528;26.740;2023-04-03T08:29:26;2.08;;;0.95;;
60018;SDS011;45870;42.528;26.740;2023-04-03T08:31:52;1.73;;;0.90;;
60018;SDS011;45870;42.528;26.740;2023-04-03T08:34:18;2.75;;;1.30;;
60018;SDS011;45870;42.528;26.740;2023-04-03T08:36:44;3.22;;;0.80;;
60018;SDS011;45870;42.528;26.740;2023-04-03T08:39:10;1.65;;;0.50;;
60018;SDS011;45870;42.528;26.740;2023-04-03T08:41:40;0.60;;;0.50;;
60018;SDS011;45870;42.528;26.740;2023-04-03T08:47:02;1.27;;;0.38;;
60018;SDS011;45870;42.528;26.740;2023-04-03T08:49:31;0.65;;;0.50;;
60018;SDS011;45870;42.528;26.740;2023-04-03T08:52:02;0.60;;;0.40;;
60018;SDS011;45870;42.528;26.740;2023-04-03T08:57:14;0.55;;;0.40;;
60018;SDS011;45870;42.528;26.740;2023-04-03T08:59:41;0.55;;;0.35;;
60018;SDS011;45870;42.528;26.740;2023-04-03T09:05:12;2.05;;;0.45;;
60018;SDS011;45870;42.528;26.740;2023-04-03T09:08:01;2.05;;;0.68;;
60018;SDS011;45870;42.528;26.740;2023-04-03T09:10:35;0.47;;;0.38;;
60018;SDS011;45870;42.528;26.740;2023-04-03T09:13:07;0.98;;;0.45;;
60018;SDS011;45870;42.528;26.740;2023-04-03T09:15:38;0.65;;;0.40;;
60018;SDS011;45870;42.528;26.740;2023-04-03T09:18:16;0.73;;;0.43;;
60018;SDS011;45870;42.528;26.740;2023-04-03T09:21:00;0.30;;;0.30;;
60018;SDS011;45870;42.528;26.740;2023-04-03T09:26:08;2.22;;;0.60;;
60018;SDS011;45870;42.528;26.740;2023-04-03T09:28:46;1.40;;;0.70;;
60018;SDS011;45870;42.528;26.740;2023-04-03T09:31:25;2.55;;;0.70;;
60018;SDS011;45870;42.528;26.740;2023-04-03T09:34:01;1.60;;;0.80;;
60018;SDS011;45870;42.528;26.740;2023-04-03T09:39:23;1.52;;;0.95;;
60018;SDS011;45870;42.528;26.740;2023-04-03T09:42:05;1.38;;;0.80;;
60018;SDS011;45870;42.528;26.740;2023-04-03T09:44:44;1.63;;;0.70;;
60018;SDS011;45870;42.528;26.740;2023-04-03T09:49:50;1.30;;;0.60;;
60018;SDS011;45870;42.528;26.740;2023-04-03T09:52:34;1.00;;;0.70;;
60018;SDS011;45870;42.528;26.740;2023-04-03T09:55:06;1.70;;;0.77;;
60018;SDS011;45870;42.528;26.740;2023-04-03T09:57:33;1.92;;;0.90;;
60018;SDS011;45870;42.528;26.740;2023-04-03T10:00:00;1.33;;;0.88;;
60018;SDS011;45870;42.528;26.740;2023-04-03T10:02:39;1.73;;;1.08;;
60018;SDS011;45870;42.528;26.740;2023-04-03T10:05:26;1.52;;;0.80;;
60018;SDS011;45870;42.528;26.740;2023-04-03T10:10:38;1.80;;;0.93;;
60018;SDS011;45870;42.528;26.740;2023-04-03T10:13:06;2.13;;;1.25;;
60018;SDS011;45870;42.528;26.740;2023-04-03T10:15:36;3.90;;;0.98;;
60018;SDS011;45870;42.528;26.740;2023-04-03T10:18:19;1.75;;;1.17;;
60018;SDS011;45870;42.528;26.740;2023-04-03T10:27:10;2.10;;;0.80;;
60018;SDS011;45870;42.528;26.740;2023-04-03T10:38:30;2.30;;;1.10;;
60018;SDS011;45870;42.528;26.740;2023-04-03T10:44:22;2.08;;;1.15;;
60018;SDS011;45870;42.528;26.740;2023-04-03T10:47:02;2.25;;;1.13;;
60018;SDS011;45870;42.528;26.740;2023-04-03T10:57:52;2.30;;;1.05;;
60018;SDS011;45870;42.528;26.740;2023-04-03T11:00:25;1.80;;;1.30;;
60018;SDS011;45870;42.528;26.740;2023-04-03T11:03:03;2.03;;;1.40;;
60018;SDS011;45870;42.528;26.740;2023-04-03T11:05:35;3.23;;;1.60;;
60018;SDS011;45870;42.528;26.740;2023-04-03T11:08:36;2.60;;;1.38;;
60018;SDS011;45870;42.528;26.740;2023-04-03T11:11:10;1.77;;;1.10;;
60018;SDS011;45870;42.528;26.740;2023-04-03T11:13:47;1.40;;;1.10;;
60018;SDS011;45870;42.528;26.740;2023-04-03T11:16:26;2.92;;;1.33;;
60018;SDS011;45870;42.528;26.740;2023-04-03T11:18:59;2.33;;;1.33;;
60018;SDS011;45870;42.528;26.740;2023-04-03T11:21:32;3.10;;;1.52;;
60018;SDS011;45870;42.528;26.740;2023-04-03T11:24:04;3.58;;;1.20;;
60018;SDS011;45870;42.528;26.740;2023-04-03T11:26:39;2.17;;;1.38;;
60018;SDS011;45870;42.528;26.740;2023-04-03T11:29:12;3.08;;;1.45;;
60018;SDS011;45870;42.528;26.740;2023-04-03T11:31:55;4.00;;;1.42;;
60018;SDS011;45870;42.528;26.740;2023-04-03T11:37:24;1.85;;;1.23;;
60018;SDS011;45870;42.528;26.740;2023-04-03T11:39:58;3.70;;;1.25;;
60018;SDS011;45870;42.528;26.740;2023-04-03T11:42:38;2.28;;;1.08;;
60018;SDS011;45870;42.528;26.740;2023-04-03T11:45:16;2.47;;;0.85;;
60018;SDS011;45870;42.528;26.740;2023-04-03T11:55:52;2.72;;;0.80;;
60018;SDS011;45870;42.528;26.740;2023-04-03T11:58:33;0.70;;;0.60;;
60018;SDS011;45870;42.528;26.740;2023-04-03T12:01:09;3.33;;;0.80;;
60018;SDS011;45870;42.528;26.740;2023-04-03T12:16:34;2.50;;;0.60;;
60018;SDS011;45870;42.528;26.740;2023-04-03T12:24:31;1.15;;;0.60;;
60018;SDS011;45870;42.528;26.740;2023-04-03T12:27:02;0.85;;;0.63;;
60018;SDS011;45870;42.528;26.740;2023-04-03T12:35:30;1.17;;;0.52;;
60018;SDS011;45870;42.528;26.740;2023-04-03T12:40:57;1.40;;;0.70;;
60018;SDS011;45870;42.528;26.740;2023-04-03T12:46:38;1.05;;;0.60;;
60018;SDS011;45870;42.528;26.740;2023-04-03T12:51:55;0.75;;;0.50;;
60018;SDS011;45870;42.528;26.740;2023-04-03T12:54:27;1.92;;;0.52;;
60018;SDS011;45870;42.528;26.740;2023-04-03T12:57:23;0.80;;;0.52;;
60018;SDS011;45870;42.528;26.740;2023-04-03T12:59:55;1.10;;;0.68;;
60018;SDS011;45870;42.528;26.740;2023-04-03T13:02:29;0.73;;;0.70;;
60018;SDS011;45870;42.528;26.740;2023-04-03T13:05:07;0.90;;;0.50;;
60018;SDS011;45870;42.528;26.740;2023-04-03T13:07:37;2.25;;;1.20;;
60018;SDS011;45870;42.528;26.740;2023-04-03T13:12:52;3.60;;;1.55;;
60018;SDS011;45870;42.528;26.740;2023-04-03T13:15:29;4.13;;;2.08;;
60018;SDS011;45870;42.528;26.740;2023-04-03T13:18:20;3.78;;;2.17;;
60018;SDS011;45870;42.528;26.740;2023-04-03T13:20:50;4.20;;;2.67;;
60018;SDS011;45870;42.528;26.740;2023-04-03T13:23:18;8.82;;;2.83;;
60018;SDS011;45870;42.528;26.740;2023-04-03T13:25:49;4.13;;;2.40;;
60018;SDS011;45870;42.528;26.740;2023-04-03T13:28:18;4.22;;;2.60;;
60018;SDS011;45870;42.528;26.740;2023-04-03T13:30:54;4.35;;;2.65;;
60018;SDS011;45870;42.528;26.740;2023-04-03T13:33:23;4.32;;;2.90;;
60018;SDS011;45870;42.528;26.740;2023-04-03T13:36:03;4.82;;;3.35;;
60018;SDS011;45870;42.528;26.740;2023-04-03T13:38:32;5.28;;;3.40;;
60018;SDS011;45870;42.528;26.740;2023-04-03T13:41:00;5.50;;;3.40;;
60018;SDS011;45870;42.528;26.740;2023-04-03T13:43:34;5.70;;;3.70;;
60018;SDS011;45870;42.528;26.740;2023-04-03T13:46:04;6.43;;;4.22;;
60018;SDS011;45870;42.528;26.740;2023-04-03T13:48:48;7.85;;;5.00;;
60018;SDS011;45870;42.528;26.740;2023-04-03T13:51:18;7.63;;;4.85;;
60018;SDS011;45870;42.528;26.740;2023-04-03T13:53:49;8.38;;;5.32;;
60018;SDS011;45870;42.528;26.740;2023-04-03T13:56:17;9.38;;;6.28;;
60018;SDS011;45870;42.528;26.740;2023-04-03T13:58:54;10.40;;;6.25;;
60018;SDS011;45870;42.528;26.740;2023-04-03T14:01:25;9.55;;;5.53;;
60018;SDS011;45870;42.528;26.740;2023-04-03T14:04:10;8.90;;;5.80;;
60018;SDS011;45870;42.528;26.740;2023-04-03T14:06:42;10.00;;;5.20;;
60018;SDS011;45870;42.528;26.740;2023-04-03T14:09:08;11.07;;;6.70;;
60018;SDS011;45870;42.528;26.740;2023-04-03T14:11:34;11.07;;;5.75;;
60018;SDS011;45870;42.528;26.740;2023-04-03T14:14:02;11.32;;;6.25;;
60018;SDS011;45870;42.528;26.740;2023-04-03T14:16:32;10.68;;;7.10;;
60018;SDS011;45870;42.528;26.740;2023-04-03T14:19:02;11.10;;;6.63;;
60018;SDS011;45870;42.528;26.740;2023-04-03T14:21:28;13.90;;;7.07;;
60018;SDS011;45870;42.528;26.740;2023-04-03T14:23:54;10.35;;;7.20;;
60018;SDS011;45870;42.528;26.740;2023-04-03T14:26:21;9.35;;;6.50;;
60018;SDS011;45870;42.528;26.740;2023-04-03T14:28:49;10.23;;;6.80;;
60018;SDS011;45870;42.528;26.740;2023-04-03T14:31:18;11.32;;;6.93;;
60018;SDS011;45870;42.528;26.740;2023-04-03T14:33:46;10.40;;;7.30;;
60018;SDS011;45870;42.528;26.740;2023-04-03T14:36:14;11.20;;;7.85;;
60018;SDS011;45870;42.528;26.740;2023-04-03T14:38:50;10.00;;;7.32;;
60018;SDS011;45870;42.528;26.740;2023-04-03T14:41:17;12.90;;;8.40;;
60018;SDS011;45870;42.528;26.740;2023-04-03T14:43:46;11.68;;;7.45;;
60018;SDS011;45870;42.528;26.740;2023-04-03T14:48:58;14.38;;;7.22;;
60018;SDS011;45870;42.528;26.740;2023-04-03T14:51:24;10.70;;;6.93;;
60018;SDS011;45870;42.528;26.740;2023-04-03T14:53:51;13.32;;;8.48;;
60018;SDS011;45870;42.528;26.740;2023-04-03T14:56:23;13.48;;;7.60;;
60018;SDS011;45870;42.528;26.740;2023-04-03T14:58:56;14.87;;;7.63;;
60018;SDS011;45870;42.528;26.740;2023-04-03T15:01:23;12.82;;;8.45;;
60018;SDS011;45870;42.528;26.740;2023-04-03T15:03:49;12.68;;;7.13;;
60018;SDS011;45870;42.528;26.740;2023-04-03T15:06:15;11.90;;;8.73;;
60018;SDS011;45870;42.528;26.740;2023-04-03T15:08:42;13.18;;;8.68;;
60018;SDS011;45870;42.528;26.740;2023-04-03T15:11:10;12.18;;;9.10;;
60018;SDS011;45870;42.528;26.740;2023-04-03T15:13:36;12.32;;;7.82;;
60018;SDS011;45870;42.528;26.740;2023-04-03T15:16:03;13.60;;;8.63;;
60018;SDS011;45870;42.528;26.740;2023-04-03T15:18:32;15.63;;;8.15;;
60018;SDS011;45870;42.528;26.740;2023-04-03T15:21:02;13.10;;;8.27;;
60018;SDS011;45870;42.528;26.740;2023-04-03T15:23:28;14.20;;;8.75;;
60018;SDS011;45870;42.528;26.740;2023-04-03T15:25:55;13.45;;;8.85;;
60018;SDS011;45870;42.528;26.740;2023-04-03T15:28:29;10.70;;;6.85;;
60018;SDS011;45870;42.528;26.740;2023-04-03T15:30:58;8.38;;;5.20;;
60018;SDS011;45870;42.528;26.740;2023-04-03T15:33:25;13.05;;;7.97;;
60018;SDS011;45870;42.528;26.740;2023-04-03T15:35:51;12.13;;;6.10;;
60018;SDS011;45870;42.528;26.740;2023-04-03T15:38:17;10.05;;;5.05;;
60018;SDS011;45870;42.528;26.740;2023-04-03T15:40:42;9.35;;;6.32;;
60018;SDS011;45870;42.528;26.740;2023-04-03T15:43:09;9.63;;;5.38;;
60018;SDS011;45870;42.528;26.740;2023-04-03T15:45:35;12.20;;;7.35;;
60018;SDS011;45870;42.528;26.740;2023-04-03T15:48:03;12.32;;;6.40;;
60018;SDS011;45870;42.528;26.740;2023-04-03T15:50:30;13.75;;;9.70;;
60018;SDS011;45870;42.528;26.740;2023-04-03T15:52:56;14.18;;;7.40;;
60018;SDS011;45870;42.528;26.740;2023-04-03T15:55:26;9.63;;;5.80;;
60018;SDS011;45870;42.528;26.740;2023-04-03T15:57:58;8.32;;;5.10;;
60018;SDS011;45870;42.528;26.740;2023-04-03T16:00:28;13.57;;;7.22;;
60018;SDS011;45870;42.528;26.740;2023-04-03T16:03:02;13.73;;;8.57;;
60018;SDS011;45870;42.528;26.740;2023-04-03T16:05:31;13.20;;;8.90;;
60018;SDS011;45870;42.528;26.740;2023-04-03T16:07:57;15.50;;;9.30;;
60018;SDS011;45870;42.528;26.740;2023-04-03T16:10:25;13.05;;;7.93;;
60018;SDS011;45870;42.528;26.740;2023-04-03T16:12:51;12.23;;;8.43;;
60018;SDS011;45870;42.528;26.740;2023-04-03T16:15:17;12.05;;;6.53;;
60018;SDS011;45870;42.528;26.740;2023-04-03T16:17:43;12.38;;;7.78;;
60018;SDS011;45870;42.528;26.740;2023-04-03T16:20:09;16.83;;;10.05;;
60018;SDS011;45870;42.528;26.740;2023-04-03T16:22:37;12.63;;;8.52;;
60018;SDS011;45870;42.528;26.740;2023-04-03T16:25:04;12.70;;;8.38;;
60018;SDS011;45870;42.528;26.740;2023-04-03T16:27:31;11.23;;;7.18;;